Time;durP1;ratioP1;P1;durP2;ratioP2;P2;SDS_P1;SDS_P2;PMS_P1;PMS_P2;Temp;Humidity;BMP_temperature;BMP_pressure;BME280_temperature;BME280_humidity;BME280_pressure;Samples;Min_cycle;Max_cycle;Signal;HPM_P1;HPM_P2
2022/12/20 00:02:19;;;;;;;47.33;28.27;;;1.10;99.90;;;;;;6273079;28;20466;-66
2022/12/20 00:05:22;;;;;;;38.10;25.83;;;1.10;99.90;;;;;;6273626;28;20471;-65
2022/12/20 00:08:25;;;;;;;47.10;26.20;;;1.20;99.90;;;;;;6274464;28;20958;-66
2022/12/20 00:11:30;;;;;;;55.57;28.60;;;1.30;99.90;;;;;;6273842;28;20859;-66
2022/12/20 00:14:33;;;;;;;45.40;27.10;;;1.20;99.90;;;;;;6273786;28;20501;-67
2022/12/20 00:17:36;;;;;;;48.47;23.63;;;1.30;99.90;;;;;;6272818;28;20980;-67
2022/12/20 00:20:40;;;;;;;49.47;25.37;;;1.20;99.90;;;;;;6272737;28;20477;-67
2022/12/20 00:23:43;;;;;;;44.80;24.93;;;1.20;99.90;;;;;;6274990;28;20736;-65
2022/12/20 00:26:47;;;;;;;47.40;26.90;;;1.20;99.90;;;;;;6272131;28;20453;-67
2022/12/20 00:29:50;;;;;;;41.30;23.27;;;1.30;99.90;;;;;;6272516;28;20906;-67
2022/12/20 00:32:53;;;;;;;48.70;25.20;;;1.30;99.90;;;;;;6272368;28;20936;-68
2022/12/20 00:35:57;;;;;;;48.20;24.80;;;1.30;99.90;;;;;;6272775;28;20516;-68
2022/12/20 00:39:01;;;;;;;54.93;26.57;;;1.20;99.90;;;;;;6273206;28;20474;-68
2022/12/20 00:42:06;;;;;;;58.03;27.93;;;1.20;99.90;;;;;;6271172;28;20469;-68
2022/12/20 00:45:10;;;;;;;45.87;26.10;;;1.20;99.90;;;;;;6272532;28;20473;-68
2022/12/20 00:48:13;;;;;;;49.97;23.67;;;1.20;99.90;;;;;;6272379;28;20965;-68
2022/12/20 00:51:18;;;;;;;45.17;25.13;;;1.20;99.90;;;;;;6273260;28;20940;-68
2022/12/20 00:54:22;;;;;;;46.90;24.43;;;1.20;99.90;;;;;;6273840;28;20474;-68
2022/12/20 00:57:26;;;;;;;48.13;25.87;;;1.30;99.90;;;;;;6274602;28;20478;-68
2022/12/20 01:00:29;;;;;;;50.20;27.20;;;1.20;99.90;;;;;;6277211;28;20474;-68
2022/12/20 01:03:32;;;;;;;48.80;30.67;;;1.20;99.90;;;;;;6268056;28;20484;-68
2022/12/20 01:06:37;;;;;;;53.03;26.43;;;1.20;99.90;;;;;;6277426;28;20619;-68
2022/12/20 01:09:40;;;;;;;55.73;28.00;;;1.20;99.90;;;;;;6276849;28;20474;-68
2022/12/20 01:12:45;;;;;;;51.40;26.63;;;1.30;99.90;;;;;;6276694;28;20941;-68
2022/12/20 01:15:48;;;;;;;44.77;27.90;;;1.40;99.90;;;;;;6277135;28;20477;-69
2022/12/20 01:18:51;;;;;;;41.30;24.90;;;1.30;99.90;;;;;;6277230;28;20490;-68
2022/12/20 01:21:54;;;;;;;43.50;23.97;;;1.30;99.90;;;;;;6286147;28;20540;-68
2022/12/20 01:24:57;;;;;;;51.33;26.50;;;1.30;99.90;;;;;;6302644;28;20466;-68
2022/12/20 01:28:02;;;;;;;51.30;25.67;;;1.30;99.90;;;;;;6302649;28;20483;-68
2022/12/20 01:31:07;;;;;;;48.93;25.00;;;1.20;99.90;;;;;;6291339;28;20470;-68
2022/12/20 01:34:10;;;;;;;48.73;25.43;;;1.20;99.90;;;;;;6277124;28;20528;-68
2022/12/20 01:37:13;;;;;;;48.60;26.37;;;1.20;99.90;;;;;;6277154;28;20984;-68
2022/12/20 01:40:16;;;;;;;46.47;26.00;;;1.20;99.90;;;;;;6276731;28;20478;-69
2022/12/20 01:43:22;;;;;;;59.33;25.60;;;1.20;99.90;;;;;;6277281;28;20466;-68
2022/12/20 01:46:27;;;;;;;46.80;25.07;;;1.20;99.90;;;;;;6277007;28;20478;-68
2022/12/20 01:49:32;;;;;;;49.13;25.33;;;1.10;99.90;;;;;;6276446;28;20485;-67
2022/12/20 01:52:39;;;;;;;53.50;24.10;;;1.20;99.90;;;;;;6276894;28;20470;-68
2022/12/20 01:55:42;;;;;;;60.97;26.80;;;1.10;99.90;;;;;;6276798;28;20810;-68
2022/12/20 01:58:49;;;;;;;52.17;25.93;;;1.10;99.90;;;;;;6276788;28;20478;-68
2022/12/20 02:01:52;;;;;;;47.37;25.30;;;1.10;99.90;;;;;;6277206;28;20493;-68
2022/12/20 02:04:55;;;;;;;44.60;24.10;;;1.00;99.90;;;;;;6276686;28;20470;-68
2022/12/20 02:07:59;;;;;;;58.37;27.17;;;1.10;99.90;;;;;;6272310;28;20466;-67
2022/12/20 02:11:16;;;;;;;50.30;26.37;;;1.10;99.90;;;;;;6276344;28;20474;-68
2022/12/20 02:14:35;;;;;;;56.60;26.50;;;1.10;99.90;;;;;;6276250;28;20965;-69
2022/12/20 02:17:48;;;;;;;46.63;25.90;;;1.10;99.90;;;;;;6276731;28;20490;-67
2022/12/20 02:21:16;;;;;;;59.93;24.77;;;1.10;99.90;;;;;;6276171;28;20466;-67
2022/12/20 02:24:50;;;;;;;48.63;24.80;;;1.10;99.90;;;;;;6251650;28;20472;-67
2022/12/20 02:28:02;;;;;;;58.27;28.77;;;1.10;99.90;;;;;;6251302;28;20486;-68
2022/12/20 02:31:11;;;;;;;53.77;25.70;;;1.10;99.90;;;;;;6262169;28;20486;-67
2022/12/20 02:34:16;;;;;;;65.33;28.07;;;1.10;99.90;;;;;;6275112;28;20475;-68
2022/12/20 02:37:19;;;;;;;48.50;24.43;;;1.10;99.90;;;;;;6274390;28;20470;-68
2022/12/20 02:40:25;;;;;;;49.17;25.20;;;1.00;99.90;;;;;;6274753;28;20813;-68
2022/12/20 02:46:53;;;;;;;52.63;27.23;;;1.00;99.90;;;;;;6274505;28;20462;-67
2022/12/20 02:49:57;;;;;;;57.10;26.90;;;1.00;99.90;;;;;;6274400;28;20942;-68
2022/12/20 02:53:01;;;;;;;45.50;24.70;;;1.00;99.90;;;;;;6275285;28;20466;-68
2022/12/20 02:56:11;;;;;;;57.90;26.20;;;0.90;99.90;;;;;;6274712;28;20484;-68
2022/12/20 02:59:19;;;;;;;60.50;26.73;;;0.90;99.90;;;;;;6275340;28;20487;-67
2022/12/20 03:02:25;;;;;;;58.90;25.30;;;0.90;99.90;;;;;;6274884;28;20471;-68
2022/12/20 03:05:28;;;;;;;58.07;27.20;;;0.80;99.90;;;;;;6274810;28;20788;-68
2022/12/20 03:08:32;;;;;;;50.13;25.10;;;0.90;99.90;;;;;;6274679;28;20489;-67
2022/12/20 03:11:35;;;;;;;49.10;25.17;;;1.00;99.90;;;;;;6272012;28;20475;-68
2022/12/20 03:14:38;;;;;;;48.87;26.57;;;1.10;99.90;;;;;;6260634;28;20482;-68
2022/12/20 03:17:42;;;;;;;61.53;26.30;;;1.10;99.90;;;;;;6274394;28;20486;-69
2022/12/20 03:20:45;;;;;;;46.93;24.37;;;1.10;99.90;;;;;;6273724;28;20948;-68
2022/12/20 03:23:48;;;;;;;52.20;25.30;;;1.20;99.90;;;;;;6277020;28;20442;-67
2022/12/20 03:26:52;;;;;;;61.97;30.03;;;1.20;99.90;;;;;;6272602;28;20906;-67
2022/12/20 03:29:55;;;;;;;64.00;29.87;;;1.10;99.90;;;;;;6271230;28;20462;-67
2022/12/20 03:33:00;;;;;;;48.50;25.53;;;1.20;99.90;;;;;;6272993;28;20448;-67
2022/12/20 03:36:03;;;;;;;56.83;29.13;;;1.20;99.90;;;;;;6272658;28;20470;-68
2022/12/20 03:39:06;;;;;;;58.33;26.80;;;1.20;99.90;;;;;;6273615;28;21012;-68
2022/12/20 03:42:09;;;;;;;54.53;29.10;;;1.10;99.90;;;;;;6270308;28;20539;-68
2022/12/20 03:45:12;;;;;;;54.70;29.47;;;1.10;99.90;;;;;;6272765;28;20466;-68
2022/12/20 03:48:17;;;;;;;68.70;31.50;;;1.20;99.90;;;;;;6272868;28;20796;-68
2022/12/20 03:51:20;;;;;;;62.63;29.90;;;1.20;99.90;;;;;;6272477;28;20973;-68
2022/12/20 03:54:23;;;;;;;60.13;25.87;;;1.20;99.90;;;;;;6273631;28;20481;-68
2022/12/20 03:57:27;;;;;;;64.93;31.13;;;1.20;99.90;;;;;;6272451;28;20467;-68
2022/12/20 04:00:30;;;;;;;65.37;32.90;;;1.10;99.90;;;;;;6272599;28;20474;-68
2022/12/20 04:03:34;;;;;;;71.23;33.90;;;1.10;99.90;;;;;;6272028;28;20485;-68
2022/12/20 04:06:37;;;;;;;77.20;35.70;;;1.20;99.90;;;;;;6273066;28;20463;-68
2022/12/20 04:09:41;;;;;;;79.10;35.43;;;1.20;99.90;;;;;;6272767;28;20482;-68
2022/12/20 04:12:44;;;;;;;60.93;28.30;;;1.20;99.90;;;;;;6271936;28;20536;-68
2022/12/20 04:15:47;;;;;;;66.17;32.97;;;1.20;99.90;;;;;;6273546;28;20948;-68
2022/12/20 04:18:52;;;;;;;66.77;36.27;;;1.20;99.90;;;;;;6271460;28;20474;-68
2022/12/20 04:21:57;;;;;;;51.03;30.37;;;1.10;99.90;;;;;;6272116;28;21004;-68
2022/12/20 04:25:07;;;;;;;76.47;38.90;;;1.10;99.90;;;;;;6271798;28;20467;-68
2022/12/20 04:28:10;;;;;;;61.40;34.27;;;1.20;99.90;;;;;;6272608;28;20532;-68
2022/12/20 04:31:14;;;;;;;60.50;29.90;;;1.20;99.90;;;;;;6272768;28;20470;-68
2022/12/20 04:34:27;;;;;;;55.70;29.60;;;1.10;99.90;;;;;;6277320;28;20549;-68
2022/12/20 04:37:30;;;;;;;62.53;31.40;;;1.00;99.90;;;;;;6277709;28;20482;-68
2022/12/20 04:40:33;;;;;;;55.50;28.73;;;0.90;99.90;;;;;;6277793;28;20477;-68
2022/12/20 04:43:36;;;;;;;52.93;28.43;;;1.00;99.90;;;;;;6277701;28;20474;-68
2022/12/20 04:46:39;;;;;;;58.90;29.67;;;1.00;99.90;;;;;;6277014;28;20487;-68
2022/12/20 04:49:44;;;;;;;60.23;29.80;;;1.00;99.90;;;;;;6274128;28;20557;-69
2022/12/20 04:56:08;;;;;;;57.47;28.60;;;1.00;99.90;;;;;;6276217;28;20585;-68
2022/12/20 04:59:12;;;;;;;58.07;27.23;;;1.00;99.90;;;;;;6274033;28;20477;-69
2022/12/20 05:02:15;;;;;;;59.03;30.90;;;1.00;99.90;;;;;;6277002;28;20474;-69
2022/12/20 05:05:20;;;;;;;48.70;25.83;;;1.00;99.90;;;;;;6277286;28;20478;-68
2022/12/20 05:08:23;;;;;;;49.90;27.80;;;1.10;99.90;;;;;;6274619;28;20470;-68
2022/12/20 05:11:26;;;;;;;49.60;26.40;;;1.10;99.90;;;;;;6276945;28;20473;-67
2022/12/20 05:14:29;;;;;;;54.70;26.77;;;1.20;99.90;;;;;;6276985;28;20474;-68
2022/12/20 05:17:33;;;;;;;55.90;27.57;;;1.20;99.90;;;;;;6276571;28;20478;-67
2022/12/20 05:20:37;;;;;;;50.57;26.90;;;1.20;99.90;;;;;;6265538;28;20972;-67
2022/12/20 05:27:01;;;;;;;48.70;25.13;;;1.10;99.90;;;;;;6302840;28;20457;-67
2022/12/20 05:30:05;;;;;;;49.97;26.33;;;1.20;99.90;;;;;;6300115;28;20461;-67
2022/12/20 05:33:09;;;;;;;58.50;26.80;;;1.20;99.90;;;;;;6277609;28;20509;-67
2022/12/20 05:36:13;;;;;;;58.17;27.10;;;1.20;99.90;;;;;;6277641;28;20467;-67
2022/12/20 05:39:16;;;;;;;53.80;26.63;;;1.20;99.90;;;;;;6276984;28;20462;-67
2022/12/20 05:42:20;;;;;;;55.63;27.53;;;1.10;99.90;;;;;;6277049;28;20813;-67
2022/12/20 05:45:23;;;;;;;60.30;27.90;;;1.10;99.90;;;;;;6277070;28;20470;-67
2022/12/20 05:48:26;;;;;;;59.87;31.47;;;1.10;99.90;;;;;;6276628;28;20478;-68
2022/12/20 05:51:31;;;;;;;57.53;27.30;;;1.10;99.90;;;;;;6276752;28;20467;-68
2022/12/20 05:54:34;;;;;;;60.90;29.80;;;1.20;99.90;;;;;;6276325;28;20946;-68
2022/12/20 05:57:37;;;;;;;58.03;27.07;;;1.20;99.90;;;;;;6276677;28;20485;-68
2022/12/20 06:00:41;;;;;;;61.40;25.70;;;1.20;99.90;;;;;;6276888;28;20843;-68
2022/12/20 06:03:44;;;;;;;57.63;30.23;;;1.10;99.90;;;;;;6276590;28;20470;-68
2022/12/20 06:06:49;;;;;;;55.97;27.30;;;1.00;99.90;;;;;;6277961;28;20798;-68
2022/12/20 06:09:52;;;;;;;55.73;26.23;;;1.00;99.90;;;;;;6276660;28;20937;-69
2022/12/20 06:12:55;;;;;;;58.00;27.20;;;1.00;99.90;;;;;;6276490;28;20535;-68
2022/12/20 06:15:59;;;;;;;54.93;27.90;;;1.10;99.90;;;;;;6276605;28;20478;-68
2022/12/20 06:19:02;;;;;;;61.23;28.30;;;1.10;99.90;;;;;;6275572;28;20489;-67
2022/12/20 06:22:07;;;;;;;52.67;27.40;;;1.20;99.90;;;;;;6276111;28;20545;-68
2022/12/20 06:25:11;;;;;;;58.07;26.07;;;1.30;99.90;;;;;;6274590;28;20458;-67
2022/12/20 06:28:15;;;;;;;51.17;25.90;;;1.30;99.90;;;;;;6274315;28;20478;-67
2022/12/20 06:31:18;;;;;;;55.00;24.17;;;1.20;99.90;;;;;;6274928;28;20458;-68
2022/12/20 06:34:22;;;;;;;55.23;27.90;;;1.10;99.90;;;;;;6275636;28;20568;-67
2022/12/20 06:37:27;;;;;;;49.80;25.50;;;1.10;99.90;;;;;;6274987;28;20482;-68
2022/12/20 06:40:30;;;;;;;60.03;30.03;;;1.10;99.90;;;;;;6275141;28;20798;-67
2022/12/20 06:43:33;;;;;;;49.17;26.73;;;1.10;99.90;;;;;;6275318;28;20777;-68
2022/12/20 06:46:36;;;;;;;48.67;26.97;;;1.20;99.90;;;;;;6274986;28;20478;-68
2022/12/20 06:49:40;;;;;;;56.63;29.47;;;1.20;99.90;;;;;;6274295;28;20489;-67
2022/12/20 06:52:44;;;;;;;56.17;28.17;;;1.30;99.90;;;;;;6275330;28;20502;-68
2022/12/20 06:55:49;;;;;;;51.33;26.77;;;1.30;99.90;;;;;;6274868;28;20484;-67
2022/12/20 06:58:52;;;;;;;59.30;27.63;;;1.30;99.90;;;;;;6275723;28;20482;-68
2022/12/20 07:01:55;;;;;;;65.20;27.03;;;1.40;99.90;;;;;;6275471;28;20479;-68
2022/12/20 07:04:58;;;;;;;60.80;30.73;;;1.30;99.90;;;;;;6274927;28;20993;-68
2022/12/20 07:08:04;;;;;;;60.77;29.60;;;1.30;99.90;;;;;;6275206;28;20466;-67
2022/12/20 07:11:08;;;;;;;63.27;29.07;;;1.30;99.90;;;;;;6275435;28;20470;-67
2022/12/20 07:14:11;;;;;;;62.23;28.33;;;1.10;99.90;;;;;;6275294;28;20552;-68
2022/12/20 07:17:15;;;;;;;54.07;26.77;;;1.10;99.90;;;;;;6275111;28;20470;-68
2022/12/20 07:20:19;;;;;;;68.20;30.00;;;1.10;99.90;;;;;;6274556;28;20802;-67
2022/12/20 07:23:23;;;;;;;69.30;29.30;;;1.20;99.90;;;;;;6295189;28;20465;-67
2022/12/20 07:26:28;;;;;;;56.13;29.10;;;1.20;99.90;;;;;;6299744;28;20481;-67
2022/12/20 07:29:31;;;;;;;58.57;28.90;;;1.20;99.90;;;;;;6299525;28;20572;-67
2022/12/20 07:32:34;;;;;;;70.77;31.77;;;1.30;99.90;;;;;;6275959;28;20969;-67
2022/12/20 07:35:37;;;;;;;56.93;26.30;;;1.40;99.90;;;;;;6274822;28;20466;-67
2022/12/20 07:38:42;;;;;;;50.90;27.17;;;1.50;99.90;;;;;;6274390;28;20486;-68
2022/12/20 07:41:45;;;;;;;63.87;29.23;;;1.40;99.90;;;;;;6274399;28;20461;-68
2022/12/20 07:44:48;;;;;;;55.90;28.47;;;1.50;99.90;;;;;;6274518;28;20458;-67
2022/12/20 07:47:51;;;;;;;68.73;28.73;;;1.50;99.90;;;;;;6274332;28;20443;-67
2022/12/20 07:50:58;;;;;;;57.43;28.03;;;1.30;99.90;;;;;;6274413;28;20485;-67
2022/12/20 07:54:06;;;;;;;55.03;26.20;;;1.30;99.90;;;;;;6274571;28;20458;-68
2022/12/20 07:57:14;;;;;;;55.40;27.70;;;1.40;99.90;;;;;;6274231;28;20485;-68
2022/12/20 08:00:18;;;;;;;66.90;29.20;;;1.50;99.90;;;;;;6275092;28;20474;-67
2022/12/20 08:03:26;;;;;;;60.87;29.67;;;1.50;99.90;;;;;;6274446;28;20470;-67
2022/12/20 08:06:30;;;;;;;61.83;28.30;;;1.50;99.90;;;;;;6276532;28;20466;-68
2022/12/20 08:09:39;;;;;;;57.63;32.80;;;1.50;99.90;;;;;;6279929;28;20481;-68
2022/12/20 08:12:45;;;;;;;68.33;30.70;;;1.60;99.90;;;;;;6279496;28;20474;-68
2022/12/20 08:15:48;;;;;;;70.70;30.17;;;1.60;99.90;;;;;;6279490;28;20770;-68
2022/12/20 08:18:51;;;;;;;59.23;27.97;;;1.60;99.90;;;;;;6278964;28;20478;-67
2022/12/20 08:21:54;;;;;;;57.27;25.30;;;1.60;99.90;;;;;;6287202;28;20469;-67
2022/12/20 08:24:59;;;;;;;62.53;26.60;;;1.60;99.90;;;;;;6303893;28;20472;-67
2022/12/20 08:28:02;;;;;;;69.27;33.00;;;1.60;99.90;;;;;;6303830;28;20465;-67
2022/12/20 08:31:07;;;;;;;76.17;35.70;;;1.60;99.90;;;;;;6300770;28;20470;-67
2022/12/20 08:34:11;;;;;;;65.20;28.80;;;1.70;99.90;;;;;;6278729;28;20989;-68
2022/12/20 08:37:16;;;;;;;52.37;26.87;;;1.70;99.90;;;;;;6278722;28;20481;-67
2022/12/20 08:40:21;;;;;;;58.90;26.30;;;1.60;99.90;;;;;;6278531;28;20475;-67
2022/12/20 08:43:24;;;;;;;55.27;29.33;;;1.50;99.90;;;;;;6278957;28;20470;-67
2022/12/20 08:46:27;;;;;;;60.90;28.90;;;1.50;99.90;;;;;;6277810;28;20484;-67
2022/12/20 08:49:30;;;;;;;56.33;26.23;;;1.50;99.90;;;;;;6278149;28;20608;-68
2022/12/20 08:52:33;;;;;;;54.43;26.23;;;1.50;99.90;;;;;;6278438;28;20484;-68
2022/12/20 08:55:39;;;;;;;61.40;29.57;;;1.40;99.90;;;;;;6278209;28;20474;-68
2022/12/20 08:58:44;;;;;;;55.20;24.23;;;1.30;99.90;;;;;;6278349;28;20805;-67
2022/12/20 09:01:47;;;;;;;62.40;26.37;;;1.30;99.90;;;;;;6279307;28;20961;-67
2022/12/20 09:04:50;;;;;;;58.00;27.63;;;1.40;99.90;;;;;;6281609;28;20527;-67
2022/12/20 09:07:54;;;;;;;54.80;28.07;;;1.50;99.90;;;;;;6282555;28;20902;-67
2022/12/20 09:11:05;;;;;;;59.13;30.57;;;1.50;99.90;;;;;;6282049;28;20482;-67
2022/12/20 09:14:09;;;;;;;50.63;25.77;;;1.50;99.90;;;;;;6284330;28;20474;-67
2022/12/20 09:17:12;;;;;;;71.17;28.93;;;1.60;99.90;;;;;;6283121;28;20470;-67
2022/12/20 09:20:16;;;;;;;56.70;27.73;;;1.60;99.90;;;;;;6280251;28;20474;-67
2022/12/20 09:23:19;;;;;;;53.80;24.57;;;1.60;99.90;;;;;;6297666;28;20550;-68
2022/12/20 09:26:24;;;;;;;60.40;28.67;;;1.60;99.90;;;;;;6302390;28;20484;-68
2022/12/20 09:29:27;;;;;;;59.73;28.30;;;1.60;99.90;;;;;;6302438;28;20469;-68
2022/12/20 09:32:37;;;;;;;53.50;25.77;;;1.60;99.90;;;;;;6277240;28;20486;-68
2022/12/20 09:35:45;;;;;;;48.93;24.37;;;1.60;99.90;;;;;;6277377;28;20478;-68
2022/12/20 09:38:48;;;;;;;59.73;29.93;;;1.50;99.90;;;;;;6277588;28;20485;-68
2022/12/20 09:41:53;;;;;;;56.03;24.87;;;1.40;99.90;;;;;;6281412;28;20487;-68
2022/12/20 09:45:02;;;;;;;53.87;27.80;;;1.20;99.90;;;;;;6281860;28;20463;-68
2022/12/20 09:48:09;;;;;;;60.47;24.87;;;1.30;99.90;;;;;;6279562;28;20489;-68
2022/12/20 09:51:22;;;;;;;59.33;30.67;;;1.30;99.90;;;;;;6277615;28;20474;-68
2022/12/20 09:54:34;;;;;;;57.30;27.50;;;1.30;99.90;;;;;;6276471;28;20486;-68
2022/12/20 09:57:50;;;;;;;55.03;25.53;;;1.30;99.90;;;;;;6276542;28;20485;-68
2022/12/20 10:00:54;;;;;;;65.87;26.97;;;1.30;99.90;;;;;;6276522;28;20837;-68
2022/12/20 10:03:59;;;;;;;58.63;27.50;;;1.40;99.90;;;;;;6275931;28;20466;-68
2022/12/20 10:07:20;;;;;;;64.70;28.47;;;1.40;99.90;;;;;;6276900;28;20781;-68
2022/12/20 10:10:52;;;;;;;64.23;28.80;;;1.40;99.90;;;;;;6276019;28;20482;-68
2022/12/20 10:14:06;;;;;;;59.00;29.17;;;1.50;99.90;;;;;;6275086;28;20478;-68
2022/12/20 10:17:16;;;;;;;67.17;29.10;;;1.50;99.90;;;;;;6276261;28;20471;-68
2022/12/20 10:20:38;;;;;;;61.40;30.20;;;1.50;99.90;;;;;;6276526;28;20478;-68
2022/12/20 10:23:51;;;;;;;55.90;27.50;;;1.60;99.90;;;;;;6299115;28;20795;-68
2022/12/20 10:26:55;;;;;;;50.87;27.00;;;1.70;99.90;;;;;;6301369;28;20442;-68
2022/12/20 10:29:59;;;;;;;60.23;28.30;;;1.70;99.90;;;;;;6299466;28;20949;-68
2022/12/20 10:33:02;;;;;;;54.83;27.13;;;1.70;99.90;;;;;;6276934;28;20486;-68
2022/12/20 10:36:19;;;;;;;70.77;29.50;;;1.80;99.90;;;;;;6275982;28;20949;-68
2022/12/20 10:39:41;;;;;;;56.00;26.10;;;1.80;99.90;;;;;;6275674;28;20845;-68
2022/12/20 10:42:44;;;;;;;62.70;28.50;;;1.90;99.90;;;;;;6275964;28;20489;-68
2022/12/20 10:45:58;;;;;;;68.40;30.00;;;1.90;99.90;;;;;;6275803;28;20485;-68
2022/12/20 10:49:31;;;;;;;52.70;25.50;;;2.00;99.90;;;;;;6265960;28;20988;-68
2022/12/20 10:52:34;;;;;;;64.10;31.20;;;2.00;99.90;;;;;;6254258;28;20482;-68
2022/12/20 10:55:40;;;;;;;60.90;28.43;;;2.10;99.90;;;;;;6275169;28;20470;-68
2022/12/20 10:58:51;;;;;;;73.07;26.33;;;2.10;99.90;;;;;;6274834;28;21223;-68
2022/12/20 11:01:56;;;;;;;67.03;28.20;;;2.10;99.90;;;;;;6275173;28;20484;-68
2022/12/20 11:05:00;;;;;;;63.87;29.37;;;2.10;99.90;;;;;;6271767;28;20464;-67
2022/12/20 11:08:12;;;;;;;60.33;28.03;;;2.10;99.90;;;;;;6250094;28;20471;-66
2022/12/20 11:11:36;;;;;;;58.13;28.07;;;2.00;99.90;;;;;;6250653;28;20555;-66
2022/12/20 11:14:40;;;;;;;74.63;35.90;;;2.00;99.90;;;;;;6253451;28;20942;-66
2022/12/20 11:17:50;;;;;;;72.57;35.53;;;2.00;99.90;;;;;;6249406;28;20466;-66
2022/12/20 11:21:03;;;;;;;58.07;28.20;;;2.00;99.90;;;;;;6251437;28;20459;-64
2022/12/20 11:24:14;;;;;;;58.03;28.07;;;2.00;99.90;;;;;;6270064;28;20447;-66
2022/12/20 11:27:36;;;;;;;56.87;27.03;;;2.10;99.90;;;;;;6275573;28;20473;-64
2022/12/20 11:30:48;;;;;;;66.30;28.33;;;2.00;99.90;;;;;;6275547;28;20482;-65
2022/12/20 11:34:10;;;;;;;60.53;28.80;;;1.80;99.90;;;;;;6251980;28;20944;-64
2022/12/20 11:37:22;;;;;;;53.90;29.60;;;1.70;99.90;;;;;;6249186;28;20561;-64
2022/12/20 11:40:32;;;;;;;54.20;27.33;;;1.20;99.90;;;;;;6251635;28;20494;-64
2022/12/20 11:43:56;;;;;;;66.10;28.23;;;1.20;99.90;;;;;;6250017;28;20494;-64
2022/12/20 11:47:33;;;;;;;61.67;26.77;;;1.40;99.90;;;;;;6251195;28;20542;-65
2022/12/20 11:50:59;;;;;;;57.13;28.50;;;1.60;99.90;;;;;;6249871;28;20813;-66
2022/12/20 11:54:10;;;;;;;55.73;28.83;;;1.70;99.90;;;;;;6250852;28;20770;-67
2022/12/20 11:57:18;;;;;;;57.40;29.20;;;1.60;99.90;;;;;;6261801;28;20477;-65
2022/12/20 12:00:22;;;;;;;65.30;31.20;;;1.60;99.90;;;;;;6273967;28;20462;-67
2022/12/20 12:03:34;;;;;;;69.73;28.37;;;1.60;99.90;;;;;;6274121;28;20470;-67
2022/12/20 12:06:43;;;;;;;64.00;28.67;;;1.60;99.90;;;;;;6274105;28;20801;-67
2022/12/20 12:09:56;;;;;;;47.87;24.70;;;1.50;99.90;;;;;;6274387;28;20482;-66
2022/12/20 12:13:03;;;;;;;60.57;26.60;;;1.50;99.90;;;;;;6274819;28;20478;-67
2022/12/20 12:16:11;;;;;;;59.87;28.00;;;1.50;99.90;;;;;;6274455;28;20479;-67
2022/12/20 12:19:15;;;;;;;49.93;25.33;;;1.50;99.90;;;;;;6273677;28;20811;-66
2022/12/20 12:22:28;;;;;;;55.53;26.70;;;1.50;99.90;;;;;;6275542;28;20466;-67
2022/12/20 12:25:31;;;;;;;55.00;25.53;;;1.50;99.90;;;;;;6274448;28;20481;-66
2022/12/20 12:28:35;;;;;;;51.87;26.20;;;1.50;99.90;;;;;;6275548;28;20485;-66
2022/12/20 12:31:43;;;;;;;58.07;26.27;;;1.60;99.90;;;;;;6273113;28;20469;-68
2022/12/20 12:35:00;;;;;;;57.50;28.20;;;1.60;99.90;;;;;;6273813;28;20599;-69
2022/12/20 12:38:28;;;;;;;56.70;27.60;;;1.50;99.90;;;;;;6249019;28;20474;-69
2022/12/20 12:42:00;;;;;;;57.20;26.20;;;1.40;99.90;;;;;;6249337;28;20474;-69
2022/12/20 12:45:07;;;;;;;57.20;25.27;;;1.40;99.90;;;;;;6249039;28;20467;-69
2022/12/20 12:48:17;;;;;;;64.90;26.20;;;1.50;99.90;;;;;;6248778;28;20459;-69
2022/12/20 12:51:25;;;;;;;53.73;25.03;;;1.50;99.90;;;;;;6199747;28;20477;-70
2022/12/20 12:54:36;;;;;;;50.07;25.17;;;1.60;99.90;;;;;;6203357;28;20473;-69
2022/12/20 12:57:55;;;;;;;59.03;26.83;;;1.60;99.90;;;;;;6219855;28;20468;-69
2022/12/20 13:01:02;;;;;;;59.77;25.27;;;1.60;99.90;;;;;;6228746;28;20468;-69
2022/12/20 13:04:24;;;;;;;54.47;24.93;;;1.60;99.90;;;;;;6228494;28;20474;-69
2022/12/20 13:07:42;;;;;;;45.33;24.43;;;1.60;99.90;;;;;;6228611;28;20491;-69
2022/12/20 13:11:13;;;;;;;52.00;23.57;;;1.60;99.90;;;;;;6228057;28;20474;-65
2022/12/20 13:14:52;;;;;;;48.60;24.27;;;1.50;99.90;;;;;;6228472;28;20801;-66
2022/12/20 13:17:57;;;;;;;49.67;23.70;;;1.30;99.90;;;;;;6228480;28;20467;-67
2022/12/20 13:21:38;;;;;;;58.40;25.50;;;1.30;99.90;;;;;;6230176;28;20484;-67
2022/12/20 13:24:55;;;;;;;55.60;26.53;;;1.40;99.90;;;;;;6253371;28;20992;-67
2022/12/20 13:28:32;;;;;;;50.90;24.83;;;1.50;99.90;;;;;;6204976;28;20481;-67
2022/12/20 13:31:37;;;;;;;48.87;24.97;;;1.50;99.90;;;;;;6212141;28;20472;-67
2022/12/20 13:34:54;;;;;;;60.10;28.27;;;1.50;99.90;;;;;;6230093;28;20468;-67
2022/12/20 13:38:00;;;;;;;60.37;30.97;;;1.50;99.90;;;;;;6227611;28;20480;-65
2022/12/20 13:41:19;;;;;;;50.47;26.23;;;1.50;99.90;;;;;;6228260;28;20566;-67
2022/12/20 13:44:42;;;;;;;47.10;22.90;;;1.50;99.90;;;;;;6228066;28;20972;-66
2022/12/20 13:47:53;;;;;;;63.60;25.80;;;1.50;99.90;;;;;;6227741;28;20931;-68
2022/12/20 13:50:58;;;;;;;59.10;23.53;;;1.50;99.90;;;;;;6270736;28;20482;-67
2022/12/20 13:54:03;;;;;;;64.07;25.20;;;1.50;99.90;;;;;;6277090;28;20457;-67
2022/12/20 13:57:07;;;;;;;50.83;24.07;;;1.40;99.90;;;;;;6277385;28;20469;-67
2022/12/20 14:00:17;;;;;;;62.30;26.03;;;1.40;99.90;;;;;;6276538;28;20494;-67
2022/12/20 14:03:24;;;;;;;52.47;23.27;;;1.30;99.90;;;;;;6277029;28;20545;-66
2022/12/20 14:06:28;;;;;;;60.13;28.97;;;1.30;99.90;;;;;;6277037;28;20820;-67
2022/12/20 14:09:34;;;;;;;56.03;25.27;;;1.40;99.90;;;;;;6276663;28;20954;-67
2022/12/20 14:12:42;;;;;;;54.83;26.60;;;1.40;99.90;;;;;;6276604;28;20508;-66
2022/12/20 14:15:45;;;;;;;47.23;24.77;;;1.50;99.90;;;;;;6276294;28;20493;-67
2022/12/20 14:18:51;;;;;;;48.13;23.67;;;1.50;99.90;;;;;;6276561;28;20494;-67
2022/12/20 14:21:54;;;;;;;53.97;26.30;;;1.50;99.90;;;;;;6276344;28;20930;-67
2022/12/20 14:24:58;;;;;;;59.90;26.60;;;1.50;99.90;;;;;;6276708;28;20478;-67
2022/12/20 14:28:02;;;;;;;56.10;28.87;;;1.50;99.90;;;;;;6275650;28;20474;-67
2022/12/20 14:31:07;;;;;;;49.90;26.47;;;1.40;99.90;;;;;;6276222;28;20466;-67
2022/12/20 14:34:18;;;;;;;48.03;22.87;;;1.40;99.90;;;;;;6275634;28;20462;-67
2022/12/20 14:37:33;;;;;;;53.23;23.90;;;1.50;99.90;;;;;;6277266;28;20486;-67
2022/12/20 14:40:41;;;;;;;53.60;24.43;;;1.40;99.90;;;;;;6276242;28;20481;-66
2022/12/20 14:43:44;;;;;;;47.90;22.50;;;1.40;99.90;;;;;;6274290;28;20482;-67
2022/12/20 14:46:50;;;;;;;49.07;24.70;;;1.40;99.90;;;;;;6274385;28;20478;-66
2022/12/20 14:49:58;;;;;;;52.27;24.43;;;1.20;99.90;;;;;;6266789;28;20591;-65
2022/12/20 14:53:02;;;;;;;47.97;23.93;;;1.20;99.90;;;;;;6275486;28;20490;-62
2022/12/20 14:56:13;;;;;;;57.80;23.60;;;1.20;99.90;;;;;;6272130;28;21007;-62
2022/12/20 14:59:23;;;;;;;59.67;24.07;;;1.30;99.90;;;;;;6250680;28;20475;-62
2022/12/20 15:02:40;;;;;;;51.13;23.20;;;1.30;99.90;;;;;;6250288;28;20490;-62
2022/12/20 15:05:50;;;;;;;51.07;24.17;;;1.40;99.90;;;;;;6250663;28;20468;-62
2022/12/20 15:08:53;;;;;;;55.27;27.20;;;1.40;99.90;;;;;;6250688;28;20459;-62
2022/12/20 15:11:58;;;;;;;44.37;22.33;;;1.40;99.90;;;;;;6250312;28;20454;-63
2022/12/20 15:15:02;;;;;;;43.13;22.07;;;1.40;99.90;;;;;;6250400;28;20444;-64
2022/12/20 15:18:25;;;;;;;48.63;23.20;;;1.30;99.90;;;;;;6268799;28;20596;-63
2022/12/20 15:21:33;;;;;;;51.50;23.80;;;1.20;99.90;;;;;;6279203;28;20466;-63
2022/12/20 15:24:36;;;;;;;49.67;23.43;;;1.20;99.90;;;;;;6299042;28;20471;-62
2022/12/20 15:27:39;;;;;;;54.80;26.00;;;1.30;99.90;;;;;;6299570;28;20465;-64
2022/12/20 15:30:42;;;;;;;48.17;24.90;;;1.30;99.90;;;;;;6299531;28;20481;-64
2022/12/20 15:33:46;;;;;;;45.47;24.80;;;1.20;99.90;;;;;;6250229;28;20478;-62
2022/12/20 15:36:51;;;;;;;50.43;22.80;;;1.30;99.90;;;;;;6249602;28;20820;-64
2022/12/20 15:39:54;;;;;;;47.53;21.07;;;1.30;99.90;;;;;;6249564;28;20486;-63
2022/12/20 15:42:57;;;;;;;57.83;26.70;;;1.30;99.90;;;;;;6249458;28;20996;-62
2022/12/20 15:46:01;;;;;;;59.17;27.17;;;1.30;99.90;;;;;;6249738;28;20471;-64
2022/12/20 15:49:04;;;;;;;48.57;24.83;;;1.30;99.90;;;;;;6250015;28;20526;-63
2022/12/20 15:52:16;;;;;;;54.70;22.73;;;1.30;99.90;;;;;;6249600;28;20467;-63
2022/12/20 15:55:19;;;;;;;52.10;23.77;;;1.30;99.90;;;;;;6250598;28;20478;-64
2022/12/20 15:58:23;;;;;;;43.10;23.07;;;1.40;99.90;;;;;;6271321;28;20474;-63
2022/12/20 16:01:28;;;;;;;52.93;23.87;;;1.40;99.90;;;;;;6274427;28;20481;-64
2022/12/20 16:04:41;;;;;;;54.67;23.03;;;1.40;99.90;;;;;;6274981;28;20489;-64
2022/12/20 16:07:46;;;;;;;54.00;24.20;;;1.30;99.90;;;;;;6274759;28;20466;-63
2022/12/20 16:10:51;;;;;;;48.70;21.67;;;1.30;99.90;;;;;;6274328;28;20494;-63